Decoded Metar for UAOO (KZYL-ORDA in KAZAKHSTAN) (IATA:N/A) | Meteo·Mobile Aviation Weather
aviador You're here:

UAOO Decoded Metar

KZYL-ORDA in KAZAKHSTAN
Report Time2019-10-22 13:30:00
UTC Time2019-10-22 13:44:03
Flight Rules vfr VFR
Wind050° at 6 kt
W.Decomp.*RWY 06: 5.7 kt HW 1.8 kt LCW
Visibility9999 m
Phenomena:N/A
Clouds:N/A
Expected CloudBase > 5,600 ft AGL from Temp-Dew spread
CeilingNone
Temp09°C (ISA -5)
Dew Point-5°C (37% RH)
AAT4.2°C
QNH1025 hPa
Density Alt-538 ft
Elevation423 ft
Report Wrong Elevation
Raw Report
UAOO 221330Z 05003MPS CAVOK 09/M05 Q1025 R05/CLRD70 NOSIG RMK
QFE757/1010=

Extra information for UAOO:More info

Metar Taf Metar & Taf Last 4 Metars F.Rules Stats Wind Profile Meteogram Temp Stats Airport Information Weather charts Add Link Nearby VenuesMetar ALERT Operation Metar Decoded Social comments